createdAt,value
2017-01-05T00:00:54.361Z,91.06
2017-01-05T00:01:54.393Z,87.57
2017-01-05T00:02:54.320Z,86.72
2017-01-05T00:03:54.304Z,84.64
2017-01-05T00:04:54.491Z,82.85
2017-01-05T00:05:54.261Z,80.11
2017-01-05T00:06:54.529Z,76.9
2017-01-05T00:07:54.310Z,76.25
2017-01-05T00:08:54.208Z,75.78
2017-01-05T00:09:54.467Z,75.3
2017-01-05T00:10:54.165Z,74.26
2017-01-05T00:11:54.148Z,74.45
2017-01-05T00:12:54.473Z,74.64
2017-01-05T00:13:54.116Z,74.36
2017-01-05T00:14:54.300Z,73.98
2017-01-05T00:15:54.407Z,73.98
2017-01-05T00:16:54.543Z,74.92
2017-01-05T00:17:54.442Z,75.68
2017-01-05T00:18:54.011Z,75.78
2017-01-05T00:19:53.997Z,76.15
2017-01-05T00:20:54.043Z,79.08
2017-01-05T00:21:53.951Z,78.23
2017-01-05T00:22:53.930Z,77.19
2017-01-05T00:23:53.909Z,76.72
2017-01-05T00:24:54.159Z,75.3
2017-01-05T00:25:53.869Z,75.21
2017-01-05T00:26:54.253Z,74.92
2017-01-05T00:27:53.879Z,74.36
2017-01-05T00:28:53.844Z,75.11
2017-01-05T00:29:54.241Z,74.64
2017-01-05T00:30:53.772Z,75.21
2017-01-05T00:31:54.048Z,76.25
2017-01-05T00:32:53.732Z,77.75
2017-01-05T00:33:53.713Z,78.32
2017-01-05T00:34:54.070Z,77.66
2017-01-05T00:35:53.672Z,75.87
2017-01-05T00:36:54.160Z,74.17
2017-01-05T00:37:53.632Z,70.87
2017-01-05T00:38:53.741Z,70.87
2017-01-05T00:39:53.593Z,69.64
2017-01-05T00:40:53.573Z,70.58
2017-01-05T00:41:53.604Z,70.68
2017-01-05T00:42:53.775Z,70.58
2017-01-05T00:43:53.513Z,69.92
2017-01-05T00:44:53.493Z,69.17
2017-01-05T00:45:53.475Z,68.7
2017-01-05T00:46:53.456Z,70.11
2017-01-05T00:47:53.587Z,70.39
2017-01-05T00:48:53.413Z,70.87
2017-01-05T00:49:53.556Z,71.25
2017-01-05T00:50:53.377Z,71.68
2017-01-05T00:51:53.355Z,70.64
2017-01-05T00:52:53.339Z,70.45
2017-01-05T00:53:53.747Z,70.36
2017-01-05T00:54:53.294Z,71.21
2017-01-05T00:55:53.274Z,71.96
2017-01-05T00:56:53.723Z,72.72
2017-01-05T00:57:53.234Z,71.77
2017-01-05T00:58:53.215Z,70.64
2017-01-05T00:59:53.584Z,70.07
2017-01-05T01:00:53.178Z,68.76
2017-01-05T01:01:53.159Z,69.6
2017-01-05T01:02:53.134Z,70.36
2017-01-05T01:03:53.399Z,70.54
2017-01-05T01:04:53.095Z,70.92
2017-01-05T01:05:53.082Z,71.3
2017-01-05T01:06:53.531Z,72.34
2017-01-05T01:07:53.036Z,73.19
2017-01-05T01:08:53.016Z,75.07
2017-01-05T01:09:52.995Z,75.64
2017-01-05T01:10:52.975Z,76.49
2017-01-05T01:11:52.959Z,77.34
2017-01-05T01:12:52.934Z,78.85
2017-01-05T01:13:52.914Z,82.06
2017-01-05T01:14:52.893Z,84.13
2017-01-05T01:15:52.873Z,83.65
2017-01-05T01:16:52.853Z,83.94
2017-01-05T01:17:52.966Z,84.69
2017-01-05T01:18:52.814Z,86.11
2017-01-05T01:19:52.795Z,88.18
2017-01-05T01:20:52.780Z,90.07
2017-01-05T01:21:52.755Z,89.79
2017-01-05T01:22:52.737Z,91.2
2017-01-05T01:23:52.716Z,93.18
2017-01-05T01:24:52.694Z,92.95
2017-01-05T01:25:52.675Z,92.33
2017-01-05T01:26:52.654Z,92.47
2017-01-05T01:27:52.634Z,93.89
2017-01-05T01:28:52.619Z,94.08
2017-01-05T01:29:52.593Z,92.38
2017-01-05T01:30:52.572Z,91.53
2017-01-05T01:31:52.557Z,92.14
2017-01-05T01:32:52.536Z,92.76
2017-01-05T01:33:52.545Z,92.95
2017-01-05T01:34:52.544Z,89.64
2017-01-05T01:35:52.479Z,87.57
2017-01-05T01:36:52.695Z,86.53
2017-01-05T01:37:52.652Z,84.74
2017-01-05T01:38:52.509Z,83.94
2017-01-05T01:39:52.401Z,84.08
2017-01-05T01:40:52.378Z,83.42
2017-01-05T01:41:52.354Z,83.09
2017-01-05T01:42:52.363Z,82.76
2017-01-05T01:43:52.399Z,81.68
2017-01-05T01:44:52.346Z,81.11
2017-01-05T01:45:52.393Z,79.98
2017-01-05T01:46:52.255Z,78.94
2017-01-05T01:47:52.233Z,79.27
2017-01-05T01:48:52.310Z,79.83
2017-01-05T01:49:52.402Z,82.62
2017-01-05T01:50:52.386Z,87.24
2017-01-05T01:51:52.155Z,88.51
2017-01-05T01:52:52.133Z,88.75
2017-01-05T01:53:52.114Z,88.37
2017-01-05T01:54:52.472Z,88.18
2017-01-05T01:55:52.074Z,87.43
2017-01-05T01:56:52.062Z,88.94
2017-01-05T01:57:52.441Z,87.62
2017-01-05T01:58:52.054Z,87.9
2017-01-05T01:59:52.190Z,86.77
2017-01-05T02:00:51.977Z,86.49
2017-01-05T02:01:51.955Z,87.62
2017-01-05T02:02:52.208Z,89.13
2017-01-05T02:03:51.913Z,88.09
2017-01-05T02:04:51.896Z,86.21
2017-01-05T02:05:51.875Z,84.51
2017-01-05T02:06:51.857Z,83.18
2017-01-05T02:07:51.834Z,82.62
2017-01-05T02:08:51.815Z,81.77
2017-01-05T02:09:52.062Z,80.64
2017-01-05T02:10:51.774Z,81.49
2017-01-05T02:11:51.755Z,80.36
2017-01-05T02:12:52.017Z,79.03
2017-01-05T02:13:52.158Z,77.72
2017-01-05T02:14:51.694Z,75.83
2017-01-05T02:15:51.677Z,74.69
2017-01-05T02:16:51.655Z,73.28
2017-01-05T02:17:52.056Z,71.96
2017-01-05T02:18:51.852Z,71.87
2017-01-05T02:19:51.594Z,71.4
2017-01-05T02:20:51.576Z,70.73
2017-01-05T02:21:51.553Z,69.98
2017-01-05T02:22:51.535Z,68.85
2017-01-05T02:23:51.516Z,68.38
2017-01-05T02:24:51.596Z,68.57
2017-01-05T02:25:51.474Z,67.72
2017-01-05T02:26:52.579Z,67.53
2017-01-05T02:27:51.434Z,67.15
2017-01-05T02:28:51.704Z,67.91
2017-01-05T02:29:51.394Z,68.29
2017-01-05T02:30:51.620Z,68.1
2017-01-05T02:31:51.352Z,68.19
2017-01-05T02:32:51.333Z,68
2017-01-05T02:33:51.314Z,69.42
2017-01-05T02:34:51.295Z,69.42
2017-01-05T02:35:51.271Z,68.95
2017-01-05T02:36:51.254Z,68
2017-01-05T02:37:51.232Z,67.81
2017-01-05T02:38:51.215Z,67.34
2017-01-05T02:39:51.193Z,66.87
2017-01-05T02:40:51.172Z,65.64
2017-01-05T02:41:51.153Z,64.89
2017-01-05T02:42:51.131Z,65.36
2017-01-05T02:43:51.110Z,66.68
2017-01-05T02:44:51.091Z,66.77
2017-01-05T02:45:51.071Z,66.3
2017-01-05T02:46:51.052Z,65.17
2017-01-05T02:47:51.033Z,64.7
2017-01-05T02:48:51.012Z,64.42
2017-01-05T02:49:50.994Z,65.17
2017-01-05T02:50:50.970Z,65.17
2017-01-05T02:52:50.931Z,65.73
2017-01-05T02:53:50.914Z,65.92
2017-01-05T02:54:50.892Z,66.21
2017-01-05T02:55:50.870Z,66.11
2017-01-05T02:56:50.855Z,65.83
2017-01-05T02:57:50.830Z,66.58
2017-01-05T02:58:50.812Z,66.68
2017-01-05T02:59:50.793Z,68.1
2017-01-05T03:00:50.781Z,68
2017-01-05T03:01:50.754Z,67.81
2017-01-05T03:02:50.732Z,68.57
2017-01-05T03:03:51.149Z,68.19
2017-01-05T03:04:50.692Z,68
2017-01-05T03:05:50.670Z,67.72
2017-01-05T03:06:50.652Z,67.62
2017-01-05T03:07:50.631Z,68
2017-01-05T03:08:50.612Z,67.62
2017-01-05T03:09:50.590Z,66.87
2017-01-05T03:10:50.572Z,66.11
2017-01-05T03:11:50.550Z,65.26
2017-01-05T03:12:50.530Z,64.7
2017-01-05T03:13:50.511Z,64.98
2017-01-05T03:14:50.496Z,63.95
2017-01-05T03:15:50.469Z,63.19
2017-01-05T03:16:50.452Z,62.25
2017-01-05T03:17:50.430Z,61.68
2017-01-05T03:18:50.418Z,62.06
2017-01-05T03:19:50.389Z,63.38
2017-01-05T03:20:50.370Z,62.91
2017-01-05T03:21:50.349Z,62.43
2017-01-05T03:22:50.333Z,61.96
2017-01-05T03:23:50.310Z,61.49
2017-01-05T03:24:50.291Z,60.74
2017-01-05T03:25:50.271Z,59.7
2017-01-05T03:26:50.254Z,59.51
2017-01-05T03:27:50.228Z,58.95
2017-01-05T03:28:50.211Z,58.66
2017-01-05T03:29:50.189Z,58.29
2017-01-05T03:30:50.170Z,56.77
2017-01-05T03:31:50.151Z,57.25
2017-01-05T03:32:50.165Z,56.4
2017-01-05T03:33:50.112Z,55.93
2017-01-05T03:34:50.096Z,55.46
2017-01-05T03:35:50.070Z,54.8
2017-01-05T03:36:50.050Z,54.42
2017-01-05T03:37:50.032Z,54.8
2017-01-05T03:38:50.013Z,54.61
2017-01-05T03:39:49.989Z,54.51
2017-01-05T03:40:49.970Z,53.76
2017-01-05T03:41:49.952Z,54.23
2017-01-05T03:42:49.931Z,54.51
2017-01-05T03:43:49.912Z,54.7
2017-01-05T03:44:49.892Z,55.74
2017-01-05T03:45:49.870Z,57.15
2017-01-05T03:46:49.852Z,59.35
2017-01-05T03:47:49.831Z,58.19
2017-01-05T03:48:49.809Z,58.1
2017-01-05T03:49:49.791Z,58.85
2017-01-05T03:50:49.771Z,58.79
2017-01-05T03:51:49.753Z,57.84
2017-01-05T03:52:49.731Z,58.12
2017-01-05T03:53:49.709Z,58.19
2017-01-05T03:54:49.688Z,58.6
2017-01-05T03:55:49.669Z,58.79
2017-01-05T03:56:49.649Z,58.12
2017-01-05T03:57:49.634Z,58.03
2017-01-05T03:58:49.610Z,58.22
2017-01-05T03:59:49.589Z,58.31
2017-01-05T04:00:49.569Z,58.5
2017-01-05T04:01:49.552Z,58.03
2017-01-05T04:02:49.532Z,57.94
2017-01-05T04:03:49.510Z,59.35
2017-01-05T04:04:49.491Z,59.83
2017-01-05T04:05:49.470Z,59.92
2017-01-05T04:06:49.453Z,59.45
2017-01-05T04:07:49.431Z,59.26
2017-01-05T04:08:49.409Z,59.64
2017-01-05T04:09:49.390Z,59.64
2017-01-05T04:10:49.370Z,60.11
2017-01-05T04:11:49.352Z,61.24
2017-01-05T04:12:49.330Z,61.9
2017-01-05T04:13:49.312Z,63.13
2017-01-05T04:14:49.290Z,62.56
2017-01-05T04:15:49.270Z,61.8
2017-01-05T04:16:49.651Z,62.18
2017-01-05T04:17:49.231Z,60.58
2017-01-05T04:18:49.212Z,60.39
2017-01-05T04:19:49.196Z,60.21
2017-01-05T04:20:49.172Z,60.58
2017-01-05T04:21:49.152Z,61.15
2017-01-05T04:22:49.132Z,62.09
2017-01-05T04:23:49.112Z,61.05
2017-01-05T04:24:49.092Z,60.49
2017-01-05T04:25:49.071Z,60.21
2017-01-05T04:26:49.052Z,63.03
2017-01-05T04:27:49.031Z,63.32
2017-01-05T04:28:49.014Z,63.41
2017-01-05T04:29:48.991Z,64.07
2017-01-05T04:30:49.000Z,65.01
2017-01-05T04:31:48.954Z,65.3
2017-01-05T04:32:48.935Z,66.24
2017-01-05T04:33:48.913Z,66.43
2017-01-05T04:34:48.894Z,65.39
2017-01-05T04:35:49.699Z,64.64
2017-01-05T04:36:48.853Z,65.2
2017-01-05T04:37:48.831Z,65.39
2017-01-05T04:38:48.812Z,67.85
2017-01-05T04:39:48.794Z,67.94
2017-01-05T04:40:48.774Z,67
2017-01-05T04:41:48.753Z,67.94
2017-01-05T04:42:48.734Z,67.75
2017-01-05T04:43:48.713Z,68.13
2017-01-05T04:44:48.694Z,69.45
2017-01-05T04:45:48.673Z,68.79
2017-01-05T04:46:48.653Z,68.41
2017-01-05T04:47:48.662Z,68.13
2017-01-05T04:48:48.614Z,68.88
2017-01-05T04:49:48.593Z,68.79
2017-01-05T04:50:48.574Z,68.51
2017-01-05T04:51:48.553Z,68.79
2017-01-05T04:52:48.532Z,70.68
2017-01-05T04:53:48.515Z,70.87
2017-01-05T04:54:48.494Z,69.07
2017-01-05T04:55:48.474Z,67.66
2017-01-05T04:56:48.454Z,66.24
2017-01-05T04:57:48.439Z,66.52
2017-01-05T04:58:48.414Z,65.67
2017-01-05T04:59:48.394Z,65.67
2017-01-05T05:00:48.374Z,65.96
2017-01-05T05:01:48.353Z,65.58
2017-01-05T05:02:48.337Z,65.96
2017-01-05T05:03:48.315Z,65.86
2017-01-05T05:04:48.295Z,65.01
2017-01-05T05:05:48.275Z,63.13
2017-01-05T05:06:48.253Z,61.99
2017-01-05T05:07:48.236Z,61.33
2017-01-05T05:08:48.216Z,61.15
2017-01-05T05:09:48.195Z,61.24
2017-01-05T05:10:48.174Z,61.05
2017-01-05T05:11:48.153Z,61.43
2017-01-05T05:12:48.136Z,62.09
2017-01-05T05:13:48.115Z,62.09
2017-01-05T05:14:48.094Z,61.99
2017-01-05T05:15:48.075Z,61.24
2017-01-05T05:16:48.080Z,61.52
2017-01-05T05:17:48.035Z,61.61
2017-01-05T05:18:48.018Z,61.9
2017-01-05T05:19:47.996Z,61.87
2017-01-05T05:20:47.974Z,61.61
2017-01-05T05:21:47.957Z,61.71
2017-01-05T05:22:47.936Z,61.21
2017-01-05T05:23:47.914Z,63.03
2017-01-05T05:24:47.895Z,62.94
2017-01-05T05:25:47.878Z,62.28
2017-01-05T05:26:47.855Z,61.15
2017-01-05T05:27:47.836Z,63.6
2017-01-05T05:28:47.815Z,65.86
2017-01-05T05:29:47.794Z,68.13
2017-01-05T05:30:47.774Z,66.62
2017-01-05T05:31:47.757Z,65.11
2017-01-05T05:32:47.736Z,63.79
2017-01-05T05:33:47.715Z,63.79
2017-01-05T05:34:47.694Z,63.95
2017-01-05T05:35:47.674Z,63.47
2017-01-05T05:36:47.656Z,65.67
2017-01-05T05:37:47.636Z,65.2
2017-01-05T05:38:47.615Z,63.32
2017-01-05T05:39:47.595Z,64.73
2017-01-05T05:40:47.577Z,64.92
2017-01-05T05:41:47.556Z,64.54
2017-01-05T05:42:47.535Z,63.7
2017-01-05T05:43:47.515Z,61.99
2017-01-05T05:44:47.496Z,62.66
2017-01-05T05:45:47.474Z,63.32
2017-01-05T05:46:47.455Z,64.32
2017-01-05T05:47:47.434Z,64.64
2017-01-05T05:48:47.418Z,64.45
2017-01-05T05:49:47.393Z,62.91
2017-01-05T05:50:47.378Z,62.34
2017-01-05T05:51:47.357Z,63.66
2017-01-05T05:52:47.341Z,63.89
2017-01-05T05:53:47.314Z,63.29
2017-01-05T05:54:47.296Z,64.04
2017-01-05T05:55:47.275Z,64.32
2017-01-05T05:56:47.256Z,65.45
2017-01-05T05:57:47.236Z,65.36
2017-01-05T05:58:47.215Z,65.73
2017-01-05T05:59:47.194Z,68.1
2017-01-05T06:00:47.174Z,69.89
2017-01-05T06:01:47.157Z,73.51
2017-01-05T06:02:47.135Z,73.38
2017-01-05T06:03:47.114Z,69.79
2017-01-05T06:04:47.094Z,69.04
2017-01-05T06:05:47.077Z,70.07
2017-01-05T06:06:47.055Z,70.17
2017-01-05T06:07:47.034Z,71.4
2017-01-05T06:08:47.014Z,73.94
2017-01-05T06:09:46.997Z,74.69
2017-01-05T06:10:46.976Z,76.49
2017-01-05T06:11:46.954Z,77.15
2017-01-05T06:12:46.933Z,77.25
2017-01-05T06:13:46.914Z,77.06
2017-01-05T06:14:46.892Z,76.3
2017-01-05T06:15:46.873Z,75.64
2017-01-05T06:16:46.853Z,74.22
2017-01-05T06:17:46.834Z,74.22
2017-01-05T06:18:46.812Z,73.75
2017-01-05T06:19:46.794Z,74.22
2017-01-05T06:20:46.775Z,73.19
2017-01-05T06:21:46.752Z,74.22
2017-01-05T06:22:46.731Z,73.47
2017-01-05T06:23:46.711Z,75.45
2017-01-05T06:24:46.689Z,74.13
2017-01-05T06:25:46.669Z,71.96
2017-01-05T06:26:46.651Z,69.79
2017-01-05T06:27:46.628Z,68.85
2017-01-05T06:28:46.608Z,67.62
2017-01-05T06:29:46.588Z,66.68
2017-01-05T06:30:46.567Z,65.55
2017-01-05T06:31:46.548Z,65.17
2017-01-05T06:32:46.529Z,65.64
2017-01-05T06:33:46.505Z,66.21
2017-01-05T06:34:46.486Z,70.92
2017-01-05T06:35:46.468Z,70.73
2017-01-05T06:36:46.446Z,71.68
2017-01-05T06:37:46.429Z,78.85
2017-01-05T06:38:46.406Z,82.06
2017-01-05T06:39:46.386Z,83.94
2017-01-05T06:40:46.367Z,86.49
2017-01-05T06:41:46.345Z,84.6
2017-01-05T06:42:46.324Z,84.6
2017-01-05T06:43:46.305Z,82.62
2017-01-05T06:44:46.283Z,83.65
2017-01-05T06:45:46.263Z,82.9
2017-01-05T06:46:46.244Z,81.21
2017-01-05T06:47:46.237Z,79.79
2017-01-05T06:48:46.203Z,79.22
2017-01-05T06:49:46.187Z,79.03
2017-01-05T06:50:46.163Z,78.09
2017-01-05T06:51:46.144Z,77.81
2017-01-05T06:52:46.120Z,77.25
2017-01-05T06:53:46.101Z,75.83
2017-01-05T06:54:46.082Z,75.17
2017-01-05T06:55:46.060Z,75.45
2017-01-05T06:56:46.042Z,75.45
2017-01-05T06:57:46.022Z,74.79
2017-01-05T06:58:46.008Z,74.79
2017-01-05T06:59:45.979Z,74.32
2017-01-05T07:00:45.958Z,74.13
2017-01-05T07:01:45.937Z,75.54
2017-01-05T07:02:45.918Z,75.54
2017-01-05T07:03:45.898Z,74.6
2017-01-05T07:04:45.878Z,74.13
2017-01-05T07:05:45.857Z,74.6
2017-01-05T07:06:45.838Z,74.22
2017-01-05T07:07:45.818Z,75.54
2017-01-05T07:08:45.795Z,78.38
2017-01-05T07:09:45.779Z,79.79
2017-01-05T07:10:45.757Z,79.6
2017-01-05T07:11:45.733Z,78.09
2017-01-05T07:12:45.716Z,76.68
2017-01-05T07:13:45.694Z,76.11
2017-01-05T07:14:45.674Z,76.11
2017-01-05T07:15:45.655Z,75.36
2017-01-05T07:16:45.645Z,74.69
2017-01-05T07:17:45.615Z,74.22
2017-01-05T07:18:45.593Z,72.72
2017-01-05T07:19:45.577Z,72.25
2017-01-05T07:20:45.555Z,72.15
2017-01-05T07:21:45.534Z,73.1
2017-01-05T07:22:45.514Z,73.1
2017-01-05T07:23:45.494Z,72.34
2017-01-05T07:24:45.472Z,70.36
2017-01-05T07:25:45.452Z,70.45
2017-01-05T07:26:45.431Z,70.54
2017-01-05T07:27:45.419Z,70.73
2017-01-05T07:28:45.390Z,70.64
2017-01-05T07:29:45.370Z,69.98
2017-01-05T07:30:45.351Z,70.45
2017-01-05T07:31:45.331Z,70.07
2017-01-05T07:32:45.310Z,70.17
2017-01-05T07:33:45.291Z,69.98
2017-01-05T07:34:45.272Z,70.64
2017-01-05T07:35:45.269Z,73.47
2017-01-05T07:36:45.230Z,75.07
2017-01-05T07:37:45.209Z,77.72
2017-01-05T07:38:45.189Z,77.25
2017-01-05T07:39:45.169Z,76.77
2017-01-05T07:40:45.150Z,77.62
2017-01-05T07:41:45.130Z,78.66
2017-01-05T07:42:45.110Z,78.66
2017-01-05T07:43:45.090Z,76.77
2017-01-05T07:44:45.070Z,76.21
2017-01-05T07:45:45.051Z,75.54
2017-01-05T07:46:45.028Z,73.57
2017-01-05T07:47:45.017Z,70.54
2017-01-05T07:48:44.990Z,68.76
2017-01-05T07:49:44.970Z,67.53
2017-01-05T07:50:44.946Z,66.4
2017-01-05T07:51:44.931Z,66.02
2017-01-05T07:52:44.909Z,65.92
2017-01-05T07:53:44.889Z,65.73
2017-01-05T07:54:44.867Z,65.83
2017-01-05T07:55:44.846Z,64.42
2017-01-05T07:56:44.830Z,63.76
2017-01-05T07:57:44.809Z,63.19
2017-01-05T07:58:44.793Z,64.42
2017-01-05T07:59:44.767Z,64.51
2017-01-05T08:00:44.749Z,63.95
2017-01-05T08:01:44.724Z,64.51
2017-01-05T08:02:44.707Z,63.95
2017-01-05T08:03:44.688Z,64.89
2017-01-05T08:04:44.667Z,65.73
2017-01-05T08:05:44.650Z,67.91
2017-01-05T08:06:44.631Z,68.29
2017-01-05T08:07:44.607Z,67.72
2017-01-05T08:08:44.586Z,68.19
2017-01-05T08:09:44.564Z,70.64
2017-01-05T08:10:44.547Z,74.88
2017-01-05T08:11:44.524Z,81.02
2017-01-05T08:12:44.505Z,80.83
2017-01-05T08:13:44.484Z,80.64
2017-01-05T08:14:44.464Z,81.96
2017-01-05T08:15:44.448Z,85.92
2017-01-05T08:16:44.425Z,85.26
2017-01-05T08:17:44.408Z,84.51
2017-01-05T08:18:44.387Z,85.83
2017-01-05T08:19:44.364Z,86.68
2017-01-05T08:20:44.345Z,86.68
2017-01-05T08:21:44.325Z,87.24
2017-01-05T08:22:44.304Z,91.11
2017-01-05T08:23:44.285Z,90.07
2017-01-05T08:24:44.265Z,89.45
2017-01-05T08:25:44.245Z,88.28
2017-01-05T08:26:44.229Z,89.27
2017-01-05T08:27:44.206Z,90.5
2017-01-05T08:28:44.186Z,93.51
2017-01-05T08:29:44.168Z,94.74
2017-01-05T08:30:44.145Z,93.99
2017-01-05T08:31:44.126Z,93.23
2017-01-05T08:32:44.108Z,96.72
2017-01-05T08:33:44.083Z,98.04
2017-01-05T08:34:44.065Z,99.99
2017-01-05T08:35:44.051Z,99.99
2017-01-05T08:36:44.028Z,99.99
2017-01-05T08:37:44.009Z,99.99
2017-01-05T08:38:43.988Z,99.99
2017-01-05T08:39:43.968Z,99.99
2017-01-05T08:40:43.953Z,99.99
2017-01-05T08:41:43.936Z,99.99
2017-01-05T08:42:43.908Z,99.99
2017-01-05T08:43:43.889Z,99.99
2017-01-05T08:44:43.867Z,99.99
2017-01-05T08:45:43.847Z,99.99
2017-01-05T08:46:43.828Z,99.99
2017-01-05T08:47:43.808Z,99.99
2017-01-05T08:48:43.790Z,99.99
2017-01-05T08:49:43.768Z,99.99
2017-01-05T08:50:43.750Z,99.99
2017-01-05T08:51:43.731Z,99.99
2017-01-05T08:52:43.712Z,99.99
2017-01-05T08:53:43.690Z,99.99
2017-01-05T08:54:43.673Z,99.99
2017-01-05T08:55:43.652Z,99.99
2017-01-05T08:56:43.629Z,99.99
2017-01-05T08:57:43.612Z,99.99
2017-01-05T08:58:43.591Z,99.99
2017-01-05T08:59:43.572Z,99.99
2017-01-05T09:00:43.553Z,99.99
2017-01-05T09:01:43.532Z,99.99
2017-01-05T09:02:43.513Z,99.99
2017-01-05T09:03:43.497Z,99.99
2017-01-05T09:04:43.475Z,99.99
2017-01-05T09:05:43.455Z,99.99
2017-01-05T09:06:43.435Z,99.99
2017-01-05T09:07:43.415Z,99.99
2017-01-05T09:08:43.395Z,99.99
2017-01-05T09:09:43.380Z,99.99
2017-01-05T09:10:43.389Z,99.99
2017-01-05T09:11:43.336Z,99.99
2017-01-05T09:12:43.320Z,99.99
2017-01-05T09:13:43.300Z,99.99
2017-01-05T09:14:43.284Z,99.99
2017-01-05T09:15:43.259Z,99.99
2017-01-05T09:16:43.241Z,99.99
2017-01-05T09:17:43.222Z,99.99
2017-01-05T09:18:43.200Z,99.99
2017-01-05T09:19:43.182Z,99.99
2017-01-05T09:20:43.163Z,99.99
2017-01-05T09:21:43.144Z,99.99
2017-01-05T09:22:43.124Z,99.99
2017-01-05T09:23:43.105Z,99.99
2017-01-05T09:24:43.086Z,99.99
2017-01-05T09:25:43.064Z,99.99
2017-01-05T09:26:43.044Z,99.99
2017-01-05T09:27:43.026Z,99.99
2017-01-05T09:28:43.003Z,99.99
2017-01-05T09:29:42.990Z,99.99
2017-01-05T09:30:42.968Z,99.99
2017-01-05T09:31:42.947Z,99.99
2017-01-05T09:32:42.927Z,99.99
2017-01-05T09:33:42.911Z,99.99
2017-01-05T09:34:42.891Z,99.99
2017-01-05T09:35:42.871Z,99.99
2017-01-05T09:36:42.851Z,99.99
2017-01-05T09:37:42.833Z,99.99
2017-01-05T09:38:42.813Z,99.99
2017-01-05T09:39:42.792Z,99.99
2017-01-05T09:40:42.773Z,99.99
2017-01-05T09:41:42.753Z,99.99
2017-01-05T09:42:42.736Z,99.99
2017-01-05T09:43:42.713Z,99.99
2017-01-05T09:44:42.695Z,99.99
2017-01-05T09:45:42.678Z,99.99
2017-01-05T09:46:42.659Z,99.99
2017-01-05T09:47:42.638Z,99.99
2017-01-05T09:48:42.620Z,99.99
2017-01-05T09:49:42.602Z,99.99
2017-01-05T09:50:42.581Z,99.99
2017-01-05T09:51:42.562Z,99.99
2017-01-05T09:52:42.941Z,99.99
2017-01-05T09:53:42.525Z,99.99
2017-01-05T09:54:42.505Z,99.99
2017-01-05T09:55:42.486Z,99.99
2017-01-05T09:56:42.468Z,99.99
2017-01-05T09:57:42.450Z,99.99
2017-01-05T09:58:42.429Z,99.99
2017-01-05T09:59:42.411Z,99.99
2017-01-05T10:00:42.395Z,99.99
2017-01-05T10:01:42.375Z,99.99
2017-01-05T10:02:42.353Z,99.99
2017-01-05T10:03:42.342Z,99.99
2017-01-05T10:04:42.318Z,99.99
2017-01-05T10:05:42.301Z,99.99
2017-01-05T10:06:42.280Z,99.99
2017-01-05T10:07:42.259Z,99.99
2017-01-05T10:08:42.241Z,99.99
2017-01-05T10:09:42.221Z,99.99
2017-01-05T10:10:42.207Z,99.99
2017-01-05T10:11:42.187Z,99.99
2017-01-05T10:12:42.163Z,99.99
2017-01-05T10:13:42.144Z,99.99
2017-01-05T10:14:42.128Z,99.99
2017-01-05T10:15:42.106Z,99.99
2017-01-05T10:16:42.087Z,99.99
2017-01-05T10:17:42.066Z,99.99
2017-01-05T10:18:42.049Z,99.99
2017-01-05T10:19:42.029Z,99.99
2017-01-05T10:20:42.011Z,99.99
2017-01-05T10:21:41.987Z,99.99
2017-01-05T10:22:41.970Z,99.99
2017-01-05T10:23:41.950Z,99.99
2017-01-05T10:24:41.931Z,99.99
2017-01-05T10:25:41.911Z,99.99
2017-01-05T10:26:41.891Z,99.99
2017-01-05T10:27:41.871Z,99.99
2017-01-05T10:28:41.856Z,99.99
2017-01-05T10:29:41.833Z,99.99
2017-01-05T10:30:41.814Z,99.99
2017-01-05T10:31:41.791Z,99.99
2017-01-05T10:32:41.776Z,99.99
2017-01-05T10:33:41.753Z,99.99
2017-01-05T10:34:41.738Z,99.99
2017-01-05T10:35:41.719Z,99.99
2017-01-05T10:36:41.701Z,99.99
2017-01-05T10:37:41.679Z,99.99
2017-01-05T10:38:41.658Z,99.99
2017-01-05T10:39:41.664Z,99.99
2017-01-05T10:40:41.618Z,99.99
2017-01-05T10:41:41.602Z,99.99
2017-01-05T10:42:41.581Z,99.99
2017-01-05T10:43:41.567Z,99.99
2017-01-05T10:44:41.550Z,99.99
2017-01-05T10:45:41.526Z,99.99
2017-01-05T10:46:41.505Z,99.99
2017-01-05T10:47:41.487Z,99.99
2017-01-05T10:48:41.469Z,99.99
2017-01-05T10:49:41.446Z,99.99
2017-01-05T10:50:41.428Z,99.99
2017-01-05T10:51:41.409Z,99.99
2017-01-05T10:52:41.387Z,99.99
2017-01-05T10:53:41.372Z,99.99
2017-01-05T10:54:41.348Z,99.99
2017-01-05T10:55:41.360Z,99.99
2017-01-05T10:56:41.314Z,99.99
2017-01-05T10:57:41.295Z,99.99
2017-01-05T10:58:41.273Z,99.99
2017-01-05T10:59:41.251Z,99.99
2017-01-05T11:00:41.231Z,99.99
2017-01-05T11:01:41.213Z,99.99
2017-01-05T11:02:41.193Z,99.99
2017-01-05T11:03:41.174Z,99.99
2017-01-05T11:04:41.155Z,99.99
2017-01-05T11:05:41.136Z,99.99
2017-01-05T11:06:41.120Z,99.99
2017-01-05T11:07:41.092Z,99.99
2017-01-05T11:08:41.077Z,99.99
2017-01-05T11:09:41.060Z,99.99
2017-01-05T11:10:41.043Z,99.99
2017-01-05T11:11:41.020Z,99.99
2017-01-05T11:12:40.999Z,99.99
2017-01-05T11:13:40.982Z,99.99
2017-01-05T11:14:40.960Z,99.99
2017-01-05T11:15:40.943Z,99.99
2017-01-05T11:16:40.924Z,99.99
2017-01-05T11:17:40.904Z,99.99
2017-01-05T11:18:40.908Z,99.99
2017-01-05T11:19:40.865Z,99.99
2017-01-05T11:20:40.844Z,99.99
2017-01-05T11:21:40.826Z,99.99
2017-01-05T11:22:40.808Z,99.99
2017-01-05T11:23:40.787Z,99.99
2017-01-05T11:24:40.771Z,99.99
2017-01-05T11:25:40.746Z,99.99
2017-01-05T11:26:40.730Z,99.99
2017-01-05T11:27:40.710Z,99.99
2017-01-05T11:28:40.694Z,99.99
2017-01-05T11:29:40.669Z,99.99
2017-01-05T11:30:40.651Z,99.99
2017-01-05T11:31:40.632Z,99.99
2017-01-05T11:32:40.612Z,99.99
2017-01-05T11:33:40.595Z,99.99
2017-01-05T11:34:40.576Z,99.99
2017-01-05T11:35:40.554Z,99.99
2017-01-05T11:36:40.536Z,99.99
2017-01-05T11:37:40.522Z,99.99
2017-01-05T11:38:40.497Z,99.99
2017-01-05T11:39:40.476Z,99.99
2017-01-05T11:40:40.457Z,99.99
2017-01-05T11:41:40.436Z,99.99
2017-01-05T11:42:40.420Z,99.99
2017-01-05T11:43:40.397Z,99.99
2017-01-05T11:44:40.392Z,99.99
2017-01-05T11:45:40.361Z,99.99
2017-01-05T11:46:40.339Z,99.99
2017-01-05T11:47:40.322Z,99.99
2017-01-05T11:48:40.300Z,99.99
2017-01-05T11:49:40.282Z,99.99
2017-01-05T11:50:40.263Z,99.99
2017-01-05T11:51:40.241Z,99.99
2017-01-05T11:52:40.220Z,99.99
2017-01-05T11:53:40.202Z,99.99
2017-01-05T11:54:40.582Z,99.99
2017-01-05T11:55:40.164Z,99.99
2017-01-05T11:56:40.159Z,99.99
2017-01-05T11:57:40.127Z,99.99
2017-01-05T11:58:40.105Z,99.99
2017-01-05T11:59:40.087Z,99.99
2017-01-05T12:00:40.066Z,99.99
2017-01-05T12:01:40.064Z,99.99
2017-01-05T12:02:40.024Z,99.99
2017-01-05T12:03:40.005Z,99.99
2017-01-05T12:04:39.988Z,99.99
2017-01-05T12:05:39.969Z,99.99
2017-01-05T12:06:39.947Z,99.99
2017-01-05T12:07:39.929Z,99.99
2017-01-05T12:08:39.909Z,99.99
2017-01-05T12:09:39.911Z,99.99
2017-01-05T12:10:39.870Z,99.99
2017-01-05T12:11:39.848Z,99.99
2017-01-05T12:12:39.831Z,99.99
2017-01-05T12:13:39.811Z,99.99
2017-01-05T12:14:39.792Z,99.99
2017-01-05T12:15:39.770Z,99.99
2017-01-05T12:16:39.752Z,99.99
2017-01-05T12:17:39.734Z,99.99
2017-01-05T12:18:39.712Z,99.99
2017-01-05T12:19:39.695Z,99.99
2017-01-05T12:20:39.673Z,99.99
2017-01-05T12:21:39.654Z,99.99
2017-01-05T12:22:39.634Z,99.99
2017-01-05T12:23:39.614Z,99.99
2017-01-05T12:24:39.599Z,99.99
2017-01-05T12:25:39.577Z,99.99
2017-01-05T12:26:39.559Z,99.99
2017-01-05T12:27:39.535Z,99.99
2017-01-05T12:28:39.516Z,99.99
2017-01-05T12:29:39.499Z,99.99
2017-01-05T12:30:39.482Z,99.99
2017-01-05T12:31:39.461Z,99.99
2017-01-05T12:32:39.481Z,99.99
2017-01-05T12:33:39.464Z,99.99
2017-01-05T12:34:39.442Z,99.99
2017-01-05T12:35:39.426Z,99.99
2017-01-05T12:36:39.405Z,99.99
2017-01-05T12:37:39.385Z,99.99
2017-01-05T12:38:39.366Z,99.99
2017-01-05T12:39:39.348Z,99.99
2017-01-05T12:40:39.324Z,99.99
2017-01-05T12:41:39.308Z,99.99
2017-01-05T12:42:39.287Z,99.99
2017-01-05T12:43:39.267Z,99.99
2017-01-05T12:44:39.247Z,99.99
2017-01-05T12:45:39.226Z,99.99
2017-01-05T12:46:39.216Z,99.99
2017-01-05T12:47:39.195Z,99.99
2017-01-05T12:48:39.170Z,99.99
2017-01-05T12:49:39.147Z,99.99
2017-01-05T12:50:39.130Z,99.99
2017-01-05T12:51:39.109Z,99.99
2017-01-05T12:52:39.088Z,99.99
2017-01-05T12:53:39.071Z,99.99
2017-01-05T12:54:39.051Z,99.99
2017-01-05T12:55:39.030Z,99.99